sensor_id;sensor_type;location;lat;lon;timestamp;temperature;humidity
16247;DHT22;8231;50.866;7.944;2023-11-18T00:01:20;1.70;99.90
16247;DHT22;8231;50.866;7.944;2023-11-18T00:03:48;1.60;99.90
16247;DHT22;8231;50.866;7.944;2023-11-18T00:06:17;1.70;99.90
16247;DHT22;8231;50.866;7.944;2023-11-18T00:08:45;1.70;99.90
16247;DHT22;8231;50.866;7.944;2023-11-18T00:11:13;1.60;99.90
16247;DHT22;8231;50.866;7.944;2023-11-18T00:13:42;1.70;99.90
16247;DHT22;8231;50.866;7.944;2023-11-18T00:16:10;1.70;99.90
16247;DHT22;8231;50.866;7.944;2023-11-18T00:18:40;1.70;99.90
16247;DHT22;8231;50.866;7.944;2023-11-18T00:21:08;1.80;99.90
16247;DHT22;8231;50.866;7.944;2023-11-18T00:23:38;1.70;99.90
16247;DHT22;8231;50.866;7.944;2023-11-18T00:26:06;1.60;99.90
16247;DHT22;8231;50.866;7.944;2023-11-18T00:28:34;1.90;99.90
16247;DHT22;8231;50.866;7.944;2023-11-18T00:31:02;1.60;99.90
16247;DHT22;8231;50.866;7.944;2023-11-18T00:33:31;1.60;99.90
16247;DHT22;8231;50.866;7.944;2023-11-18T00:36:00;1.60;99.90
16247;DHT22;8231;50.866;7.944;2023-11-18T00:38:28;1.40;99.90
16247;DHT22;8231;50.866;7.944;2023-11-18T00:40:58;1.60;99.90
16247;DHT22;8231;50.866;7.944;2023-11-18T00:43:27;1.60;99.90
16247;DHT22;8231;50.866;7.944;2023-11-18T00:45:55;1.60;99.90
16247;DHT22;8231;50.866;7.944;2023-11-18T00:48:26;1.60;99.90
16247;DHT22;8231;50.866;7.944;2023-11-18T00:50:55;1.70;99.90
16247;DHT22;8231;50.866;7.944;2023-11-18T00:53:24;1.60;99.90
16247;DHT22;8231;50.866;7.944;2023-11-18T00:55:52;1.60;99.90
16247;DHT22;8231;50.866;7.944;2023-11-18T00:58:22;1.60;99.90
16247;DHT22;8231;50.866;7.944;2023-11-18T01:00:50;1.60;99.90
16247;DHT22;8231;50.866;7.944;2023-11-18T01:03:19;1.60;99.90
16247;DHT22;8231;50.866;7.944;2023-11-18T01:05:47;1.60;99.90
16247;DHT22;8231;50.866;7.944;2023-11-18T01:08:15;1.50;99.90
16247;DHT22;8231;50.866;7.944;2023-11-18T01:10:44;1.50;99.90
16247;DHT22;8231;50.866;7.944;2023-11-18T01:13:11;1.50;99.90
16247;DHT22;8231;50.866;7.944;2023-11-18T01:15:41;1.40;99.90
16247;DHT22;8231;50.866;7.944;2023-11-18T01:18:09;1.60;99.90
16247;DHT22;8231;50.866;7.944;2023-11-18T01:20:37;1.50;99.90
16247;DHT22;8231;50.866;7.944;2023-11-18T01:23:05;1.50;99.90
16247;DHT22;8231;50.866;7.944;2023-11-18T01:25:34;1.50;99.90
16247;DHT22;8231;50.866;7.944;2023-11-18T01:28:02;1.50;99.90
16247;DHT22;8231;50.866;7.944;2023-11-18T01:30:31;1.50;99.90
16247;DHT22;8231;50.866;7.944;2023-11-18T01:33:01;1.50;99.90
16247;DHT22;8231;50.866;7.944;2023-11-18T01:35:31;1.50;99.90
16247;DHT22;8231;50.866;7.944;2023-11-18T01:37:59;1.50;99.90
16247;DHT22;8231;50.866;7.944;2023-11-18T01:40:27;1.50;99.90
16247;DHT22;8231;50.866;7.944;2023-11-18T01:42:57;1.60;99.90
16247;DHT22;8231;50.866;7.944;2023-11-18T01:45:25;1.60;99.90
16247;DHT22;8231;50.866;7.944;2023-11-18T01:47:54;1.50;99.90
16247;DHT22;8231;50.866;7.944;2023-11-18T01:50:24;1.50;99.90
16247;DHT22;8231;50.866;7.944;2023-11-18T01:52:52;1.60;99.90
16247;DHT22;8231;50.866;7.944;2023-11-18T01:55:21;1.60;99.90
16247;DHT22;8231;50.866;7.944;2023-11-18T01:57:49;1.60;99.90
16247;DHT22;8231;50.866;7.944;2023-11-18T02:00:18;1.60;99.90
16247;DHT22;8231;50.866;7.944;2023-11-18T02:02:46;1.50;99.90
16247;DHT22;8231;50.866;7.944;2023-11-18T02:05:15;1.50;99.90
16247;DHT22;8231;50.866;7.944;2023-11-18T02:07:47;1.60;99.90
16247;DHT22;8231;50.866;7.944;2023-11-18T02:10:15;1.60;99.90
16247;DHT22;8231;50.866;7.944;2023-11-18T02:12:48;1.60;99.90
16247;DHT22;8231;50.866;7.944;2023-11-18T02:15:21;1.60;99.90
16247;DHT22;8231;50.866;7.944;2023-11-18T02:17:52;1.70;99.90
16247;DHT22;8231;50.866;7.944;2023-11-18T02:20:21;1.70;99.90
16247;DHT22;8231;50.866;7.944;2023-11-18T02:22:52;1.70;99.90
16247;DHT22;8231;50.866;7.944;2023-11-18T02:25:21;1.70;99.90
16247;DHT22;8231;50.866;7.944;2023-11-18T02:27:55;1.60;99.90
16247;DHT22;8231;50.866;7.944;2023-11-18T02:30:23;1.60;99.90
16247;DHT22;8231;50.866;7.944;2023-11-18T02:32:55;1.60;99.90
16247;DHT22;8231;50.866;7.944;2023-11-18T02:35:32;1.60;99.90
16247;DHT22;8231;50.866;7.944;2023-11-18T02:38:04;1.60;99.90
16247;DHT22;8231;50.866;7.944;2023-11-18T02:40:36;1.70;99.90
16247;DHT22;8231;50.866;7.944;2023-11-18T02:43:07;1.70;99.90
16247;DHT22;8231;50.866;7.944;2023-11-18T02:45:37;1.70;99.90
16247;DHT22;8231;50.866;7.944;2023-11-18T02:48:06;1.60;99.90
16247;DHT22;8231;50.866;7.944;2023-11-18T02:50:35;1.60;99.90
16247;DHT22;8231;50.866;7.944;2023-11-18T02:53:04;1.60;99.90
16247;DHT22;8231;50.866;7.944;2023-11-18T02:55:32;1.60;99.90
16247;DHT22;8231;50.866;7.944;2023-11-18T02:58:01;1.60;99.90
16247;DHT22;8231;50.866;7.944;2023-11-18T03:00:34;1.50;99.90
16247;DHT22;8231;50.866;7.944;2023-11-18T03:03:05;1.50;99.90
16247;DHT22;8231;50.866;7.944;2023-11-18T03:05:33;1.50;99.90
16247;DHT22;8231;50.866;7.944;2023-11-18T03:08:03;1.50;99.90
16247;DHT22;8231;50.866;7.944;2023-11-18T03:10:33;1.50;99.90
16247;DHT22;8231;50.866;7.944;2023-11-18T03:13:01;1.50;99.90
16247;DHT22;8231;50.866;7.944;2023-11-18T03:15:30;1.40;99.90
16247;DHT22;8231;50.866;7.944;2023-11-18T03:17:59;1.40;99.90
16247;DHT22;8231;50.866;7.944;2023-11-18T03:20:27;1.40;99.90
16247;DHT22;8231;50.866;7.944;2023-11-18T03:22:55;1.40;99.90
16247;DHT22;8231;50.866;7.944;2023-11-18T03:25:27;1.40;99.90
16247;DHT22;8231;50.866;7.944;2023-11-18T03:27:55;1.40;99.90
16247;DHT22;8231;50.866;7.944;2023-11-18T03:30:24;1.40;99.90
16247;DHT22;8231;50.866;7.944;2023-11-18T03:32:54;1.40;99.90
16247;DHT22;8231;50.866;7.944;2023-11-18T03:35:23;1.30;99.90
16247;DHT22;8231;50.866;7.944;2023-11-18T03:37:52;1.30;99.90
16247;DHT22;8231;50.866;7.944;2023-11-18T03:40:22;1.30;99.90
16247;DHT22;8231;50.866;7.944;2023-11-18T03:42:50;1.30;99.90
16247;DHT22;8231;50.866;7.944;2023-11-18T03:45:20;1.30;99.90
16247;DHT22;8231;50.866;7.944;2023-11-18T03:47:48;1.30;99.90
16247;DHT22;8231;50.866;7.944;2023-11-18T03:50:17;1.30;99.90
16247;DHT22;8231;50.866;7.944;2023-11-18T03:52:47;1.40;99.90
16247;DHT22;8231;50.866;7.944;2023-11-18T03:55:15;1.30;99.90
16247;DHT22;8231;50.866;7.944;2023-11-18T03:57:46;1.30;99.90
16247;DHT22;8231;50.866;7.944;2023-11-18T04:00:16;1.30;99.90
16247;DHT22;8231;50.866;7.944;2023-11-18T04:02:45;1.40;99.90
16247;DHT22;8231;50.866;7.944;2023-11-18T04:05:13;1.40;99.90
16247;DHT22;8231;50.866;7.944;2023-11-18T04:07:41;1.40;99.90
16247;DHT22;8231;50.866;7.944;2023-11-18T04:10:11;1.40;99.90
16247;DHT22;8231;50.866;7.944;2023-11-18T04:12:39;1.40;99.90
16247;DHT22;8231;50.866;7.944;2023-11-18T04:15:08;1.60;99.90
16247;DHT22;8231;50.866;7.944;2023-11-18T04:17:38;1.40;99.90
16247;DHT22;8231;50.866;7.944;2023-11-18T04:20:09;1.40;99.90
16247;DHT22;8231;50.866;7.944;2023-11-18T04:22:40;1.40;99.90
16247;DHT22;8231;50.866;7.944;2023-11-18T04:25:09;1.40;99.90
16247;DHT22;8231;50.866;7.944;2023-11-18T04:27:38;1.40;99.90
16247;DHT22;8231;50.866;7.944;2023-11-18T04:30:11;1.40;99.90
16247;DHT22;8231;50.866;7.944;2023-11-18T04:32:40;1.50;99.90
16247;DHT22;8231;50.866;7.944;2023-11-18T04:35:09;1.50;99.90
16247;DHT22;8231;50.866;7.944;2023-11-18T04:37:39;1.40;99.90
16247;DHT22;8231;50.866;7.944;2023-11-18T04:40:11;1.40;99.90
16247;DHT22;8231;50.866;7.944;2023-11-18T04:42:41;1.40;99.90
16247;DHT22;8231;50.866;7.944;2023-11-18T04:45:11;1.40;99.90
16247;DHT22;8231;50.866;7.944;2023-11-18T04:47:41;1.30;99.90
16247;DHT22;8231;50.866;7.944;2023-11-18T04:50:11;1.30;99.90
16247;DHT22;8231;50.866;7.944;2023-11-18T04:52:39;1.30;99.90
16247;DHT22;8231;50.866;7.944;2023-11-18T04:55:08;1.30;99.90
16247;DHT22;8231;50.866;7.944;2023-11-18T04:57:41;1.30;99.90
16247;DHT22;8231;50.866;7.944;2023-11-18T05:00:11;1.30;99.90
16247;DHT22;8231;50.866;7.944;2023-11-18T05:02:43;1.30;99.90
16247;DHT22;8231;50.866;7.944;2023-11-18T05:05:15;1.30;99.90
16247;DHT22;8231;50.866;7.944;2023-11-18T05:07:44;1.30;99.90
16247;DHT22;8231;50.866;7.944;2023-11-18T05:10:13;1.30;99.90
16247;DHT22;8231;50.866;7.944;2023-11-18T05:12:42;1.30;99.90
16247;DHT22;8231;50.866;7.944;2023-11-18T05:15:11;1.30;99.90
16247;DHT22;8231;50.866;7.944;2023-11-18T05:17:40;1.30;99.90
16247;DHT22;8231;50.866;7.944;2023-11-18T05:20:08;1.30;99.90
16247;DHT22;8231;50.866;7.944;2023-11-18T05:22:38;1.30;99.90
16247;DHT22;8231;50.866;7.944;2023-11-18T05:25:06;1.30;99.90
16247;DHT22;8231;50.866;7.944;2023-11-18T05:27:36;1.30;99.90
16247;DHT22;8231;50.866;7.944;2023-11-18T05:30:09;1.20;99.90
16247;DHT22;8231;50.866;7.944;2023-11-18T05:32:37;1.30;99.90
16247;DHT22;8231;50.866;7.944;2023-11-18T05:35:07;1.30;99.90
16247;DHT22;8231;50.866;7.944;2023-11-18T05:37:38;1.40;99.90
16247;DHT22;8231;50.866;7.944;2023-11-18T05:40:09;1.40;99.90
16247;DHT22;8231;50.866;7.944;2023-11-18T05:42:38;1.40;99.90
16247;DHT22;8231;50.866;7.944;2023-11-18T05:45:10;1.40;99.90
16247;DHT22;8231;50.866;7.944;2023-11-18T05:47:44;1.40;99.90
16247;DHT22;8231;50.866;7.944;2023-11-18T05:50:13;1.40;99.90
16247;DHT22;8231;50.866;7.944;2023-11-18T05:52:42;1.40;99.90
16247;DHT22;8231;50.866;7.944;2023-11-18T05:55:11;1.40;99.90
16247;DHT22;8231;50.866;7.944;2023-11-18T05:57:39;1.40;99.90
16247;DHT22;8231;50.866;7.944;2023-11-18T06:00:08;1.40;99.90
16247;DHT22;8231;50.866;7.944;2023-11-18T06:02:40;1.40;99.90
16247;DHT22;8231;50.866;7.944;2023-11-18T06:05:09;1.40;99.90
16247;DHT22;8231;50.866;7.944;2023-11-18T06:07:39;1.40;99.90
16247;DHT22;8231;50.866;7.944;2023-11-18T06:10:10;1.40;99.90
16247;DHT22;8231;50.866;7.944;2023-11-18T06:12:39;1.40;99.90
16247;DHT22;8231;50.866;7.944;2023-11-18T06:15:08;1.50;99.90
16247;DHT22;8231;50.866;7.944;2023-11-18T06:17:44;1.50;99.90
16247;DHT22;8231;50.866;7.944;2023-11-18T06:20:12;1.40;99.90
16247;DHT22;8231;50.866;7.944;2023-11-18T06:22:41;1.40;99.90
16247;DHT22;8231;50.866;7.944;2023-11-18T06:25:10;1.40;99.90
16247;DHT22;8231;50.866;7.944;2023-11-18T06:27:39;1.40;99.90
16247;DHT22;8231;50.866;7.944;2023-11-18T06:30:09;1.40;99.90
16247;DHT22;8231;50.866;7.944;2023-11-18T06:32:39;1.40;99.90
16247;DHT22;8231;50.866;7.944;2023-11-18T06:35:09;1.50;99.90
16247;DHT22;8231;50.866;7.944;2023-11-18T06:37:38;1.50;99.90
16247;DHT22;8231;50.866;7.944;2023-11-18T06:40:07;1.50;99.90
16247;DHT22;8231;50.866;7.944;2023-11-18T06:42:43;1.50;99.90
16247;DHT22;8231;50.866;7.944;2023-11-18T06:45:14;1.50;99.90
16247;DHT22;8231;50.866;7.944;2023-11-18T06:47:43;1.50;99.90
16247;DHT22;8231;50.866;7.944;2023-11-18T06:50:13;1.50;99.90
16247;DHT22;8231;50.866;7.944;2023-11-18T06:52:43;1.50;99.90
16247;DHT22;8231;50.866;7.944;2023-11-18T06:55:14;1.50;99.90
16247;DHT22;8231;50.866;7.944;2023-11-18T06:57:44;1.50;99.90
16247;DHT22;8231;50.866;7.944;2023-11-18T07:00:14;1.50;99.90
16247;DHT22;8231;50.866;7.944;2023-11-18T07:02:42;1.50;99.90
16247;DHT22;8231;50.866;7.944;2023-11-18T07:05:13;1.50;99.90
16247;DHT22;8231;50.866;7.944;2023-11-18T07:07:42;1.50;99.90
16247;DHT22;8231;50.866;7.944;2023-11-18T07:10:11;1.50;99.90
16247;DHT22;8231;50.866;7.944;2023-11-18T07:12:40;1.50;99.90
16247;DHT22;8231;50.866;7.944;2023-11-18T07:15:09;1.50;99.90
16247;DHT22;8231;50.866;7.944;2023-11-18T07:17:38;1.50;99.90
16247;DHT22;8231;50.866;7.944;2023-11-18T07:20:09;1.60;99.90
16247;DHT22;8231;50.866;7.944;2023-11-18T07:22:41;1.60;99.90
16247;DHT22;8231;50.866;7.944;2023-11-18T07:25:09;1.60;99.90
16247;DHT22;8231;50.866;7.944;2023-11-18T07:27:38;1.70;99.90
16247;DHT22;8231;50.866;7.944;2023-11-18T07:30:07;1.70;99.90
16247;DHT22;8231;50.866;7.944;2023-11-18T07:32:38;1.70;99.90
16247;DHT22;8231;50.866;7.944;2023-11-18T07:35:07;1.80;99.90
16247;DHT22;8231;50.866;7.944;2023-11-18T07:37:36;1.90;99.90
16247;DHT22;8231;50.866;7.944;2023-11-18T07:40:08;1.90;99.90
16247;DHT22;8231;50.866;7.944;2023-11-18T07:42:39;2.00;99.90
16247;DHT22;8231;50.866;7.944;2023-11-18T07:45:08;2.00;99.90
16247;DHT22;8231;50.866;7.944;2023-11-18T07:47:45;2.00;99.90
16247;DHT22;8231;50.866;7.944;2023-11-18T07:50:16;2.10;99.90
16247;DHT22;8231;50.866;7.944;2023-11-18T07:52:47;2.10;99.90
16247;DHT22;8231;50.866;7.944;2023-11-18T07:55:17;2.20;99.90
16247;DHT22;8231;50.866;7.944;2023-11-18T07:57:45;2.20;99.90
16247;DHT22;8231;50.866;7.944;2023-11-18T08:00:14;2.30;99.90
16247;DHT22;8231;50.866;7.944;2023-11-18T08:02:42;2.30;99.90
16247;DHT22;8231;50.866;7.944;2023-11-18T08:05:11;2.30;99.90
16247;DHT22;8231;50.866;7.944;2023-11-18T08:07:42;2.40;99.90
16247;DHT22;8231;50.866;7.944;2023-11-18T08:10:12;2.40;99.90
16247;DHT22;8231;50.866;7.944;2023-11-18T08:12:42;2.50;99.90
16247;DHT22;8231;50.866;7.944;2023-11-18T08:15:10;2.60;99.90
16247;DHT22;8231;50.866;7.944;2023-11-18T08:17:38;3.00;99.90
16247;DHT22;8231;50.866;7.944;2023-11-18T08:20:07;2.60;99.90
16247;DHT22;8231;50.866;7.944;2023-11-18T08:22:41;2.60;99.90
16247;DHT22;8231;50.866;7.944;2023-11-18T08:25:11;2.70;99.90
16247;DHT22;8231;50.866;7.944;2023-11-18T08:27:43;2.70;99.90
16247;DHT22;8231;50.866;7.944;2023-11-18T08:30:12;2.70;99.90
16247;DHT22;8231;50.866;7.944;2023-11-18T08:32:42;2.80;99.90
16247;DHT22;8231;50.866;7.944;2023-11-18T08:35:11;2.90;99.90
16247;DHT22;8231;50.866;7.944;2023-11-18T08:37:42;2.90;99.90
16247;DHT22;8231;50.866;7.944;2023-11-18T08:40:11;3.10;99.90
16247;DHT22;8231;50.866;7.944;2023-11-18T08:42:45;3.10;99.90
16247;DHT22;8231;50.866;7.944;2023-11-18T08:45:18;3.10;99.90
16247;DHT22;8231;50.866;7.944;2023-11-18T08:47:49;3.20;99.90
16247;DHT22;8231;50.866;7.944;2023-11-18T08:50:19;3.30;99.90
16247;DHT22;8231;50.866;7.944;2023-11-18T08:52:51;3.30;99.90
16247;DHT22;8231;50.866;7.944;2023-11-18T08:55:26;3.40;99.90
16247;DHT22;8231;50.866;7.944;2023-11-18T08:58:08;3.40;99.90
16247;DHT22;8231;50.866;7.944;2023-11-18T09:00:49;3.50;99.90
16247;DHT22;8231;50.866;7.944;2023-11-18T09:03:21;3.50;99.90
16247;DHT22;8231;50.866;7.944;2023-11-18T09:05:56;3.60;99.90
16247;DHT22;8231;50.866;7.944;2023-11-18T09:08:26;3.90;99.90
16247;DHT22;8231;50.866;7.944;2023-11-18T09:10:56;3.80;99.90
16247;DHT22;8231;50.866;7.944;2023-11-18T09:13:26;3.90;99.90
16247;DHT22;8231;50.866;7.944;2023-11-18T09:15:56;4.00;99.90
16247;DHT22;8231;50.866;7.944;2023-11-18T09:18:25;4.10;99.90
16247;DHT22;8231;50.866;7.944;2023-11-18T09:20:54;4.10;99.90
16247;DHT22;8231;50.866;7.944;2023-11-18T09:23:23;4.10;99.90
16247;DHT22;8231;50.866;7.944;2023-11-18T09:25:52;4.20;99.90
16247;DHT22;8231;50.866;7.944;2023-11-18T09:28:23;4.30;99.90
16247;DHT22;8231;50.866;7.944;2023-11-18T09:30:53;4.30;99.90
16247;DHT22;8231;50.866;7.944;2023-11-18T09:33:25;4.30;99.90
16247;DHT22;8231;50.866;7.944;2023-11-18T09:35:56;4.40;99.90
16247;DHT22;8231;50.866;7.944;2023-11-18T09:38:27;4.50;99.90
16247;DHT22;8231;50.866;7.944;2023-11-18T09:40:56;4.50;99.90
16247;DHT22;8231;50.866;7.944;2023-11-18T09:43:29;4.60;99.90
16247;DHT22;8231;50.866;7.944;2023-11-18T09:46:04;4.60;99.90
16247;DHT22;8231;50.866;7.944;2023-11-18T09:48:43;4.60;99.90
16247;DHT22;8231;50.866;7.944;2023-11-18T09:51:20;4.70;99.90
16247;DHT22;8231;50.866;7.944;2023-11-18T09:53:50;4.70;99.90
16247;DHT22;8231;50.866;7.944;2023-11-18T09:56:28;4.70;99.90
16247;DHT22;8231;50.866;7.944;2023-11-18T09:59:10;4.70;99.90
16247;DHT22;8231;50.866;7.944;2023-11-18T10:01:50;4.90;99.90
16247;DHT22;8231;50.866;7.944;2023-11-18T10:04:21;4.80;99.90
16247;DHT22;8231;50.866;7.944;2023-11-18T10:06:49;4.80;99.90
16247;DHT22;8231;50.866;7.944;2023-11-18T10:09:20;4.80;99.90
16247;DHT22;8231;50.866;7.944;2023-11-18T10:11:55;4.80;99.90
16247;DHT22;8231;50.866;7.944;2023-11-18T10:14:32;4.90;99.90
16247;DHT22;8231;50.866;7.944;2023-11-18T10:17:04;4.90;99.90
16247;DHT22;8231;50.866;7.944;2023-11-18T10:19:54;4.90;99.90
16247;DHT22;8231;50.866;7.944;2023-11-18T10:22:24;4.90;99.90
16247;DHT22;8231;50.866;7.944;2023-11-18T10:24:53;4.90;99.90
16247;DHT22;8231;50.866;7.944;2023-11-18T10:27:24;4.90;99.90
16247;DHT22;8231;50.866;7.944;2023-11-18T10:29:56;4.90;99.90
16247;DHT22;8231;50.866;7.944;2023-11-18T10:32:26;4.90;99.90
16247;DHT22;8231;50.866;7.944;2023-11-18T10:34:56;4.90;99.90
16247;DHT22;8231;50.866;7.944;2023-11-18T10:37:25;5.00;99.90
16247;DHT22;8231;50.866;7.944;2023-11-18T10:39:57;5.00;99.90
16247;DHT22;8231;50.866;7.944;2023-11-18T10:42:26;5.00;99.90
16247;DHT22;8231;50.866;7.944;2023-11-18T10:44:57;5.10;99.90
16247;DHT22;8231;50.866;7.944;2023-11-18T10:47:27;5.10;99.90
16247;DHT22;8231;50.866;7.944;2023-11-18T10:49:56;5.10;99.90
16247;DHT22;8231;50.866;7.944;2023-11-18T10:52:25;5.20;99.90
16247;DHT22;8231;50.866;7.944;2023-11-18T10:54:58;5.30;99.90
16247;DHT22;8231;50.866;7.944;2023-11-18T10:57:34;5.30;99.90
16247;DHT22;8231;50.866;7.944;2023-11-18T11:00:05;5.40;99.90
16247;DHT22;8231;50.866;7.944;2023-11-18T11:02:42;5.40;99.90
16247;DHT22;8231;50.866;7.944;2023-11-18T11:05:11;5.40;99.90
16247;DHT22;8231;50.866;7.944;2023-11-18T11:07:48;5.50;99.90
16247;DHT22;8231;50.866;7.944;2023-11-18T11:10:17;5.50;99.90
16247;DHT22;8231;50.866;7.944;2023-11-18T11:12:54;5.60;99.90
16247;DHT22;8231;50.866;7.944;2023-11-18T11:15:29;5.60;99.90
16247;DHT22;8231;50.866;7.944;2023-11-18T11:18:20;5.60;99.90
16247;DHT22;8231;50.866;7.944;2023-11-18T11:20:59;5.70;99.90
16247;DHT22;8231;50.866;7.944;2023-11-18T11:23:37;5.80;99.90
16247;DHT22;8231;50.866;7.944;2023-11-18T11:26:21;5.90;99.90
16247;DHT22;8231;50.866;7.944;2023-11-18T11:29:04;5.90;99.90
16247;DHT22;8231;50.866;7.944;2023-11-18T11:31:38;6.00;99.90
16247;DHT22;8231;50.866;7.944;2023-11-18T11:34:14;5.90;99.90
16247;DHT22;8231;50.866;7.944;2023-11-18T11:36:47;6.00;99.90
16247;DHT22;8231;50.866;7.944;2023-11-18T11:39:18;6.00;99.90
16247;DHT22;8231;50.866;7.944;2023-11-18T11:41:53;6.10;99.90
16247;DHT22;8231;50.866;7.944;2023-11-18T11:44:23;6.10;99.90
16247;DHT22;8231;50.866;7.944;2023-11-18T11:46:58;6.30;99.90
16247;DHT22;8231;50.866;7.944;2023-11-18T11:49:36;6.20;99.90
16247;DHT22;8231;50.866;7.944;2023-11-18T11:52:13;6.20;99.90
16247;DHT22;8231;50.866;7.944;2023-11-18T11:54:52;6.20;99.90
16247;DHT22;8231;50.866;7.944;2023-11-18T11:57:23;6.30;99.90
16247;DHT22;8231;50.866;7.944;2023-11-18T11:59:55;6.40;99.90
16247;DHT22;8231;50.866;7.944;2023-11-18T12:02:25;6.40;99.90
16247;DHT22;8231;50.866;7.944;2023-11-18T12:04:58;6.40;99.90
16247;DHT22;8231;50.866;7.944;2023-11-18T12:07:27;6.40;99.90
16247;DHT22;8231;50.866;7.944;2023-11-18T12:09:56;6.50;99.90
16247;DHT22;8231;50.866;7.944;2023-11-18T12:12:26;6.50;99.90
16247;DHT22;8231;50.866;7.944;2023-11-18T12:14:55;6.40;99.90
16247;DHT22;8231;50.866;7.944;2023-11-18T12:17:25;6.50;99.90
16247;DHT22;8231;50.866;7.944;2023-11-18T12:20:00;6.50;99.90
16247;DHT22;8231;50.866;7.944;2023-11-18T12:23:03;6.50;99.90
16247;DHT22;8231;50.866;7.944;2023-11-18T12:25:41;6.50;99.90
16247;DHT22;8231;50.866;7.944;2023-11-18T12:28:15;6.50;99.90
16247;DHT22;8231;50.866;7.944;2023-11-18T12:30:48;6.50;99.90
16247;DHT22;8231;50.866;7.944;2023-11-18T12:33:19;6.50;99.90
16247;DHT22;8231;50.866;7.944;2023-11-18T12:42:59;6.60;99.90
16247;DHT22;8231;50.866;7.944;2023-11-18T12:48:35;6.70;99.90
16247;DHT22;8231;50.866;7.944;2023-11-18T12:51:10;6.60;99.90
16247;DHT22;8231;50.866;7.944;2023-11-18T12:53:47;6.60;99.90
16247;DHT22;8231;50.866;7.944;2023-11-18T12:56:17;6.60;99.90
16247;DHT22;8231;50.866;7.944;2023-11-18T12:58:47;6.60;99.90
16247;DHT22;8231;50.866;7.944;2023-11-18T13:01:15;6.60;99.90
16247;DHT22;8231;50.866;7.944;2023-11-18T13:03:43;6.60;99.90
16247;DHT22;8231;50.866;7.944;2023-11-18T13:06:13;6.60;99.90
16247;DHT22;8231;50.866;7.944;2023-11-18T13:08:42;6.60;99.90
16247;DHT22;8231;50.866;7.944;2023-11-18T13:11:10;6.70;99.90
16247;DHT22;8231;50.866;7.944;2023-11-18T13:13:43;6.70;99.90
16247;DHT22;8231;50.866;7.944;2023-11-18T13:16:12;6.70;99.90
16247;DHT22;8231;50.866;7.944;2023-11-18T13:18:42;6.70;99.90
16247;DHT22;8231;50.866;7.944;2023-11-18T13:21:15;6.70;99.90
16247;DHT22;8231;50.866;7.944;2023-11-18T13:23:47;6.70;99.90
16247;DHT22;8231;50.866;7.944;2023-11-18T13:26:17;6.60;99.90
16247;DHT22;8231;50.866;7.944;2023-11-18T13:28:46;6.60;99.90
16247;DHT22;8231;50.866;7.944;2023-11-18T13:31:17;6.60;99.90
16247;DHT22;8231;50.866;7.944;2023-11-18T13:33:47;6.50;99.90
16247;DHT22;8231;50.866;7.944;2023-11-18T13:36:17;6.70;99.90
16247;DHT22;8231;50.866;7.944;2023-11-18T13:38:48;6.50;99.90
16247;DHT22;8231;50.866;7.944;2023-11-18T13:41:38;6.50;99.90
16247;DHT22;8231;50.866;7.944;2023-11-18T13:44:08;6.50;99.90
16247;DHT22;8231;50.866;7.944;2023-11-18T13:46:38;6.50;99.90
16247;DHT22;8231;50.866;7.944;2023-11-18T13:49:08;6.50;99.90
16247;DHT22;8231;50.866;7.944;2023-11-18T13:51:38;6.50;99.90
16247;DHT22;8231;50.866;7.944;2023-11-18T13:54:06;6.40;99.90
16247;DHT22;8231;50.866;7.944;2023-11-18T13:56:36;6.40;99.90
16247;DHT22;8231;50.866;7.944;2023-11-18T13:59:05;6.40;99.90
16247;DHT22;8231;50.866;7.944;2023-11-18T14:01:33;6.40;99.90
16247;DHT22;8231;50.866;7.944;2023-11-18T14:04:02;6.30;99.90
16247;DHT22;8231;50.866;7.944;2023-11-18T14:06:32;6.30;99.90
16247;DHT22;8231;50.866;7.944;2023-11-18T14:09:01;6.30;99.90
16247;DHT22;8231;50.866;7.944;2023-11-18T14:11:31;6.40;99.90
16247;DHT22;8231;50.866;7.944;2023-11-18T14:14:01;6.40;99.90
16247;DHT22;8231;50.866;7.944;2023-11-18T14:16:30;6.40;99.90
16247;DHT22;8231;50.866;7.944;2023-11-18T14:18:58;6.40;99.90
16247;DHT22;8231;50.866;7.944;2023-11-18T14:21:27;6.40;99.90
16247;DHT22;8231;50.866;7.944;2023-11-18T14:23:58;6.40;99.90
16247;DHT22;8231;50.866;7.944;2023-11-18T14:26:31;6.30;99.90
16247;DHT22;8231;50.866;7.944;2023-11-18T14:29:00;6.20;99.90
16247;DHT22;8231;50.866;7.944;2023-11-18T14:31:29;6.20;99.90
16247;DHT22;8231;50.866;7.944;2023-11-18T14:33:58;6.20;99.90
16247;DHT22;8231;50.866;7.944;2023-11-18T14:36:26;6.20;99.90
16247;DHT22;8231;50.866;7.944;2023-11-18T14:38:56;6.30;99.90
16247;DHT22;8231;50.866;7.944;2023-11-18T14:41:25;6.20;99.90
16247;DHT22;8231;50.866;7.944;2023-11-18T14:43:58;6.20;99.90
16247;DHT22;8231;50.866;7.944;2023-11-18T14:46:27;6.10;99.90
16247;DHT22;8231;50.866;7.944;2023-11-18T14:48:58;6.10;99.90
16247;DHT22;8231;50.866;7.944;2023-11-18T14:51:27;6.10;99.90
16247;DHT22;8231;50.866;7.944;2023-11-18T14:53:55;6.00;99.90
16247;DHT22;8231;50.866;7.944;2023-11-18T14:56:23;6.00;99.90
16247;DHT22;8231;50.866;7.944;2023-11-18T14:58:52;6.00;99.90
16247;DHT22;8231;50.866;7.944;2023-11-18T15:01:22;6.00;99.90
16247;DHT22;8231;50.866;7.944;2023-11-18T15:03:51;6.00;99.90
16247;DHT22;8231;50.866;7.944;2023-11-18T15:06:25;5.90;99.90
16247;DHT22;8231;50.866;7.944;2023-11-18T15:08:53;5.90;99.90
16247;DHT22;8231;50.866;7.944;2023-11-18T15:11:24;5.90;99.90
16247;DHT22;8231;50.866;7.944;2023-11-18T15:13:53;5.90;99.90
16247;DHT22;8231;50.866;7.944;2023-11-18T15:16:24;5.90;99.90
16247;DHT22;8231;50.866;7.944;2023-11-18T15:18:52;5.90;99.90
16247;DHT22;8231;50.866;7.944;2023-11-18T15:21:22;5.90;99.90
16247;DHT22;8231;50.866;7.944;2023-11-18T15:23:50;5.80;99.90
16247;DHT22;8231;50.866;7.944;2023-11-18T15:26:18;5.90;99.90
16247;DHT22;8231;50.866;7.944;2023-11-18T15:28:47;5.90;99.90
16247;DHT22;8231;50.866;7.944;2023-11-18T15:31:19;5.80;99.90
16247;DHT22;8231;50.866;7.944;2023-11-18T15:33:50;5.80;99.90
16247;DHT22;8231;50.866;7.944;2023-11-18T15:36:18;5.80;99.90
16247;DHT22;8231;50.866;7.944;2023-11-18T15:38:47;6.10;99.90
16247;DHT22;8231;50.866;7.944;2023-11-18T15:41:15;5.80;99.90
16247;DHT22;8231;50.866;7.944;2023-11-18T15:43:43;5.80;99.90
16247;DHT22;8231;50.866;7.944;2023-11-18T15:46:12;5.80;99.90
16247;DHT22;8231;50.866;7.944;2023-11-18T15:48:41;5.80;99.90
16247;DHT22;8231;50.866;7.944;2023-11-18T15:51:11;5.80;99.90
16247;DHT22;8231;50.866;7.944;2023-11-18T15:53:42;5.90;99.90
16247;DHT22;8231;50.866;7.944;2023-11-18T15:56:10;5.90;99.90
16247;DHT22;8231;50.866;7.944;2023-11-18T15:58:39;5.90;99.90
16247;DHT22;8231;50.866;7.944;2023-11-18T16:01:07;6.10;99.90
16247;DHT22;8231;50.866;7.944;2023-11-18T16:03:37;5.90;99.90
16247;DHT22;8231;50.866;7.944;2023-11-18T16:06:05;5.90;99.90
16247;DHT22;8231;50.866;7.944;2023-11-18T16:08:35;5.90;99.90
16247;DHT22;8231;50.866;7.944;2023-11-18T16:11:04;5.90;99.90
16247;DHT22;8231;50.866;7.944;2023-11-18T16:13:33;5.90;99.90
16247;DHT22;8231;50.866;7.944;2023-11-18T16:16:02;5.90;99.90
16247;DHT22;8231;50.866;7.944;2023-11-18T16:18:30;5.90;99.90
16247;DHT22;8231;50.866;7.944;2023-11-18T16:20:59;5.90;99.90
16247;DHT22;8231;50.866;7.944;2023-11-18T16:23:30;5.90;99.90
16247;DHT22;8231;50.866;7.944;2023-11-18T16:26:04;5.90;99.90
16247;DHT22;8231;50.866;7.944;2023-11-18T16:28:34;5.90;99.90
16247;DHT22;8231;50.866;7.944;2023-11-18T16:31:03;6.00;99.90
16247;DHT22;8231;50.866;7.944;2023-11-18T16:33:33;6.00;99.90